• Join FlightAware (Why Join?)
  • Login
  • US Flag 
11:32PM EST


 

Airport Tracker/Info


-or-


 

Live Flight TrackerFlight Track Log ✈ UAL6855 ✈ 28-Apr-2012 ✈ KORD - KIAD

Flight Track Log - Related Links

Times and Time Zones

All times are in EDT time to prevent confusion due to time zone crossing. See the UAL6855 flight status page for this flight to view local times or setup timezone preferences in your user account.

Time Position Orientation Groundspeed Altitude Reporting Facility
EDT Latitude Longitude Course Direction KTS MPH feet Rate Location/Type
07:21PM 41.9833 -87.8333 88° East 201 231 3,700  Level Chicago TRACON
07:23PM 41.9864 -87.7017 94° East 242 278 9,100 3,180 Climbing Chicago Center
07:24PM 41.9803 -87.5733 94° East 288 331 12,200 2,940 Climbing Chicago Center
07:25PM 41.9717 -87.4256 96° East 385 443 15,000 1,380 Climbing Chicago Center
07:26PM 41.9606 -87.2750 96° East 397 457 15,000 1,440 Level Chicago Center
07:27PM 41.9494 -87.1219 91° East 407 468 17,900 3,300 Climbing Chicago Center
07:28PM 41.9464 -86.9628 88° East 412 474 21,600 3,300 Climbing Chicago Center
07:29PM 41.9511 -86.7981 88° East 423 487 24,600 2,940 Climbing Chicago Center
07:30PM 41.9553 -86.6247 90° East 442 509 27,500 2,640 Climbing Chicago Center
07:31PM 41.9553 -86.4458 90° East 455 524 29,900 2,700 Climbing Chicago Center
07:32PM 41.9542 -86.2450 102° East 476 548 33,000 2,700 Climbing Chicago Center
07:33PM 41.9261 -86.0647 106° East 483 556 35,400 1,980 Climbing Chicago Center
07:34PM 41.8897 -85.8908 105° East 483 556 37,000 780 Climbing Chicago Center
07:35PM 41.8550 -85.7117 104° East 488 562 37,000  Level Chicago Center
07:36PM 41.8197 -85.5269 106° East 488 562 37,000 600 Level Chicago Center
07:37PM 41.7853 -85.3672 107° East 488 562 38,200 840 Climbing Chicago Center
07:38PM 41.7353 -85.1528 106° East 502 578 38,900 360 Climbing Cleveland Center
07:39PM 41.6931 -84.9522 102° East 510 587 39,000  Climbing Cleveland Center
07:40PM 41.6625 -84.7667 95° East 505 581 39,000  Level Cleveland Center
07:41PM 41.6506 -84.5769 92° East 510 587 39,000  Level Cleveland Center
07:42PM 41.6447 -84.3819 94° East 510 587 39,000 -60 Level Cleveland Center
07:43PM 41.6344 -84.1867 94° East 521 600 38,900  Descending Cleveland Center
07:44PM 41.6233 -84.0000 114° Southeast 521 600 39,000  Climbing Cleveland Center
07:45PM 41.5639 -83.8247 122° Southeast 512 589 39,000 -60 Level Cleveland Center
07:46PM 41.4869 -83.6628 122° Southeast 505 581 38,900 -60 Descending Cleveland Center
07:47PM 41.4100 -83.5014 122° Southeast 505 581 38,900  Level Cleveland Center
07:48PM 41.3347 -83.3431 123° Southeast 510 587 39,000  Climbing Cleveland Center
07:49PM 41.2569 -83.1822 124° Southeast 516 594 38,900  Descending Cleveland Center
07:50PM 41.1872 -83.0469 122° Southeast 511 588 39,000  Climbing Cleveland Center
07:51PM 41.1111 -82.8872 123° Southeast 511 588 39,000  Level Cleveland Center
07:53PM 40.9194 -82.4942 124° Southeast 508 585 39,000  Level Indianapolis Center
07:54PM 40.8781 -82.4119 124° Southeast 507 583 39,000  Level Cleveland Center
07:55PM 40.7969 -82.2561 123° Southeast 512 589 39,000  Level Cleveland Center
07:56PM 40.7178 -82.0981 123° Southeast 512 589 39,000  Level Cleveland Center
07:57PM 40.6406 -81.9403 124° Southeast 517 595 39,000  Level Cleveland Center
07:58PM 40.5611 -81.7828 124° Southeast 517 595 39,000  Level Cleveland Center
07:59PM 40.4792 -81.6258 124° Southeast 517 595 39,000  Level Cleveland Center
08:00PM 40.3931 -81.4556 124° Southeast 512 589 39,000  Level Cleveland Center
08:01PM 40.3150 -81.3019 122° Southeast 512 589 39,000  Level Cleveland Center
08:02PM 40.2389 -81.1406 120° Southeast 512 589 39,000  Level Cleveland Center
08:03PM 40.1686 -80.9825 120° Southeast 512 589 39,000  Level Cleveland Center
08:04PM 40.1044 -80.8383 122° Southeast 507 583 39,000  Level Cleveland Center
08:05PM 40.0297 -80.6806 120° Southeast 512 589 39,000  Level Cleveland Center
08:06PM 39.9589 -80.5208 122° Southeast 517 595 39,000  Level Cleveland Center
08:07PM 39.8836 -80.3639 121° Southeast 517 595 39,000 -1,680 Level Cleveland Center
08:09PM 39.7469 -80.0744 122° Southeast 497 572 34,400 -2,700 Descending Washington Center
08:10PM 39.6717 -79.9158 121° Southeast 502 578 31,600 -2,520 Descending Washington Center
08:11PM 39.5981 -79.7581 116° Southeast 509 586 29,400 -2,220 Descending Washington Center
08:12PM 39.5367 -79.5983 110° East 509 586 27,200 -2,160 Descending Washington Center
08:13PM 39.4881 -79.4289 110° East 497 572 25,200 -1,140 Descending Washington Center
08:14PM 39.4431 -79.2681 114° Southeast 491 565 25,000 -780 Descending Washington Center
08:15PM 39.3931 -79.1231 111° Southeast 486 559 23,700 -1,620 Descending Washington Center
08:16PM 39.3456 -78.9650 112° Southeast 480 552 21,800 -1,980 Descending Washington Center
08:17PM 39.2975 -78.8128 110° East 467 537 19,800 -2,040 Descending Washington Center
08:18PM 39.2556 -78.6661 112° Southeast 454 522 17,800 -2,580 Descending Washington Center
08:19PM 39.2111 -78.5250 112° Southeast 434 499 14,600 -3,240 Descending Washington Center
08:20PM 39.1706 -78.3947 103° East 413 475 11,400 -1,980 Descending Washington Center
08:21PM 39.1483 -78.2733 110° East 376 433 10,700 -1,020 Descending Washington Center
08:22PM 39.1153 -78.1572 113° Southeast 351 404 9,400 -1,260 Descending Washington Center
08:23PM 39.0800 -78.0489 111° Southeast 337 388 8,200 -1,260 Descending Washington Center
08:24PM 39.0489 -77.9464 111° Southeast 317 365 6,900 -1,140 Descending Washington Center
08:25PM 39.0156 -77.8358 111° Southeast 306 352 6,000 -480 Descending Washington Center
08:26PM 38.9858 -77.7386 113° Southeast 295 339 6,000  Level Washington Center
08:27PM 38.9522 -77.6389 129° Southeast 295 339 6,000  Level Washington Center
08:27PM 38.9167 -77.5833 180° South 298 343 6,000  Level Potomac TRACON
08:28PM 38.8667 -77.5833 180° South 230 265 6,000 -540 Level Potomac TRACON
08:29PM 38.8000 -77.5833 180° South 215 247 5,000 -540 Descending Potomac TRACON
08:30PM 38.7500 -77.5833 153° Southeast 191 220 5,000 -480 Level Potomac TRACON
08:32PM 38.7000 -77.5500 72° East 199 229 4,100 -540 Descending Potomac TRACON
08:32PM 38.7167 -77.4833 15° North 212 244 4,000 -60 Descending Potomac TRACON
08:33PM 38.7667 -77.4667 360° North 210 242 4,000 -600 Level Potomac TRACON
08:34PM 38.8167 -77.4667 360° North 198 228 2,900 -1,200 Descending Potomac TRACON
08:35PM 38.8667 -77.4667 360° North 147 169 1,700 -960 Descending Potomac TRACON
08:37PM 38.9000 -77.4667 360° North 132 152 900 -780 Descending Potomac TRACON